sensor_id;sensor_type;location;lat;lon;timestamp;temperature;humidity
1461;DHT22;724;49.910;12.530;2022-08-19T00:00:35;17.60;1.00
1461;DHT22;724;49.910;12.530;2022-08-19T00:03:02;17.50;1.00
1461;DHT22;724;49.910;12.530;2022-08-19T00:05:29;17.40;99.90
1461;DHT22;724;49.910;12.530;2022-08-19T00:07:57;17.50;99.90
1461;DHT22;724;49.910;12.530;2022-08-19T00:10:25;17.50;99.90
1461;DHT22;724;49.910;12.530;2022-08-19T00:12:52;17.40;99.90
1461;DHT22;724;49.910;12.530;2022-08-19T00:15:20;17.50;99.90
1461;DHT22;724;49.910;12.530;2022-08-19T00:17:48;17.40;99.90
1461;DHT22;724;49.910;12.530;2022-08-19T00:20:18;17.40;99.90
1461;DHT22;724;49.910;12.530;2022-08-19T00:22:46;17.40;99.90
1461;DHT22;724;49.910;12.530;2022-08-19T00:25:14;17.40;99.90
1461;DHT22;724;49.910;12.530;2022-08-19T00:27:42;17.30;99.90
1461;DHT22;724;49.910;12.530;2022-08-19T00:30:10;17.30;1.00
1461;DHT22;724;49.910;12.530;2022-08-19T00:32:37;17.40;1.00
1461;DHT22;724;49.910;12.530;2022-08-19T00:35:05;17.40;1.00
1461;DHT22;724;49.910;12.530;2022-08-19T00:37:31;17.40;1.00
1461;DHT22;724;49.910;12.530;2022-08-19T00:40:00;17.40;1.00
1461;DHT22;724;49.910;12.530;2022-08-19T00:42:27;17.40;99.90
1461;DHT22;724;49.910;12.530;2022-08-19T00:44:56;17.40;1.00
1461;DHT22;724;49.910;12.530;2022-08-19T00:47:23;17.50;99.90
1461;DHT22;724;49.910;12.530;2022-08-19T00:49:52;17.50;99.90
1461;DHT22;724;49.910;12.530;2022-08-19T00:52:23;17.60;20.50
1461;DHT22;724;49.910;12.530;2022-08-19T00:54:52;17.50;29.80
1461;DHT22;724;49.910;12.530;2022-08-19T00:57:25;17.30;99.90
1461;DHT22;724;49.910;12.530;2022-08-19T00:59:56;17.40;99.90
1461;DHT22;724;49.910;12.530;2022-08-19T01:02:25;17.30;1.00
1461;DHT22;724;49.910;12.530;2022-08-19T01:04:53;17.20;1.00
1461;DHT22;724;49.910;12.530;2022-08-19T01:07:19;17.30;1.00
1461;DHT22;724;49.910;12.530;2022-08-19T01:09:46;17.30;1.00
1461;DHT22;724;49.910;12.530;2022-08-19T01:12:14;17.30;99.90
1461;DHT22;724;49.910;12.530;2022-08-19T01:14:41;17.30;99.90
1461;DHT22;724;49.910;12.530;2022-08-19T01:17:10;17.30;1.00
1461;DHT22;724;49.910;12.530;2022-08-19T01:19:40;17.30;99.90
1461;DHT22;724;49.910;12.530;2022-08-19T01:22:14;17.40;99.90
1461;DHT22;724;49.910;12.530;2022-08-19T01:24:45;17.40;99.90
1461;DHT22;724;49.910;12.530;2022-08-19T01:27:12;17.30;99.90
1461;DHT22;724;49.910;12.530;2022-08-19T01:29:41;17.40;99.90
1461;DHT22;724;49.910;12.530;2022-08-19T01:32:10;17.50;1.00
1461;DHT22;724;49.910;12.530;2022-08-19T01:34:37;17.50;1.00
1461;DHT22;724;49.910;12.530;2022-08-19T01:37:06;17.50;1.00
1461;DHT22;724;49.910;12.530;2022-08-19T01:39:37;17.40;1.00
1461;DHT22;724;49.910;12.530;2022-08-19T01:42:06;17.40;99.90
1461;DHT22;724;49.910;12.530;2022-08-19T01:44:35;17.40;99.90
1461;DHT22;724;49.910;12.530;2022-08-19T01:47:03;17.40;7.20
1461;DHT22;724;49.910;12.530;2022-08-19T01:49:30;17.30;99.90
1461;DHT22;724;49.910;12.530;2022-08-19T01:51:58;17.40;99.90
1461;DHT22;724;49.910;12.530;2022-08-19T01:54:25;17.30;99.90
1461;DHT22;724;49.910;12.530;2022-08-19T01:56:53;17.30;99.90
1461;DHT22;724;49.910;12.530;2022-08-19T01:59:23;17.30;1.00
1461;DHT22;724;49.910;12.530;2022-08-19T02:01:50;17.40;99.90
1461;DHT22;724;49.910;12.530;2022-08-19T02:04:17;17.30;1.00
1461;DHT22;724;49.910;12.530;2022-08-19T02:06:44;17.30;1.00
1461;DHT22;724;49.910;12.530;2022-08-19T02:09:10;17.40;1.00
1461;DHT22;724;49.910;12.530;2022-08-19T02:11:37;17.40;1.00
1461;DHT22;724;49.910;12.530;2022-08-19T02:14:06;17.40;1.00
1461;DHT22;724;49.910;12.530;2022-08-19T02:16:35;17.50;99.90
1461;DHT22;724;49.910;12.530;2022-08-19T02:19:03;17.50;99.90
1461;DHT22;724;49.910;12.530;2022-08-19T02:21:30;17.50;99.90
1461;DHT22;724;49.910;12.530;2022-08-19T02:23:57;17.50;99.90
1461;DHT22;724;49.910;12.530;2022-08-19T02:26:24;17.50;99.90
1461;DHT22;724;49.910;12.530;2022-08-19T02:28:52;17.50;99.90
1461;DHT22;724;49.910;12.530;2022-08-19T02:31:21;17.40;99.90
1461;DHT22;724;49.910;12.530;2022-08-19T02:33:49;17.50;99.90
1461;DHT22;724;49.910;12.530;2022-08-19T02:36:18;17.50;99.90
1461;DHT22;724;49.910;12.530;2022-08-19T02:38:45;17.40;76.20
1461;DHT22;724;49.910;12.530;2022-08-19T02:41:13;17.30;99.90
1461;DHT22;724;49.910;12.530;2022-08-19T02:43:40;17.30;1.00
1461;DHT22;724;49.910;12.530;2022-08-19T02:46:18;17.30;1.00
1461;DHT22;724;49.910;12.530;2022-08-19T02:48:48;17.30;1.00
1461;DHT22;724;49.910;12.530;2022-08-19T02:51:17;17.30;1.00
1461;DHT22;724;49.910;12.530;2022-08-19T02:53:44;17.40;1.00
1461;DHT22;724;49.910;12.530;2022-08-19T02:56:11;17.40;1.00
1461;DHT22;724;49.910;12.530;2022-08-19T02:58:38;17.40;1.00
1461;DHT22;724;49.910;12.530;2022-08-19T03:01:05;17.50;1.00
1461;DHT22;724;49.910;12.530;2022-08-19T03:03:32;17.50;99.90
1461;DHT22;724;49.910;12.530;2022-08-19T03:06:12;17.50;99.90
1461;DHT22;724;49.910;12.530;2022-08-19T03:08:41;17.50;99.90
1461;DHT22;724;49.910;12.530;2022-08-19T03:11:13;17.50;99.90
1461;DHT22;724;49.910;12.530;2022-08-19T03:13:40;17.50;99.90
1461;DHT22;724;49.910;12.530;2022-08-19T03:16:09;17.50;99.90
1461;DHT22;724;49.910;12.530;2022-08-19T03:18:36;17.50;99.90
1461;DHT22;724;49.910;12.530;2022-08-19T03:21:04;17.40;99.90
1461;DHT22;724;49.910;12.530;2022-08-19T03:23:32;17.40;99.90
1461;DHT22;724;49.910;12.530;2022-08-19T03:25:59;17.40;99.90
1461;DHT22;724;49.910;12.530;2022-08-19T03:28:30;17.40;99.90
1461;DHT22;724;49.910;12.530;2022-08-19T03:30:58;17.40;99.90
1461;DHT22;724;49.910;12.530;2022-08-19T03:33:28;17.50;99.90
1461;DHT22;724;49.910;12.530;2022-08-19T03:36:05;17.20;99.90
1461;DHT22;724;49.910;12.530;2022-08-19T03:38:35;17.20;1.00
1461;DHT22;724;49.910;12.530;2022-08-19T03:41:03;17.20;1.00
1461;DHT22;724;49.910;12.530;2022-08-19T03:43:32;17.20;1.00
1461;DHT22;724;49.910;12.530;2022-08-19T03:46:01;17.20;1.00
1461;DHT22;724;49.910;12.530;2022-08-19T03:48:29;17.10;1.00
1461;DHT22;724;49.910;12.530;2022-08-19T03:50:57;17.10;1.00
1461;DHT22;724;49.910;12.530;2022-08-19T03:53:25;17.20;1.00
1461;DHT22;724;49.910;12.530;2022-08-19T03:55:53;17.20;1.00
1461;DHT22;724;49.910;12.530;2022-08-19T03:58:20;17.10;1.00
1461;DHT22;724;49.910;12.530;2022-08-19T04:00:47;17.10;1.00
1461;DHT22;724;49.910;12.530;2022-08-19T04:03:14;17.10;1.00
1461;DHT22;724;49.910;12.530;2022-08-19T04:05:40;17.10;1.00
1461;DHT22;724;49.910;12.530;2022-08-19T04:08:07;17.00;1.00
1461;DHT22;724;49.910;12.530;2022-08-19T04:10:35;17.00;1.00
1461;DHT22;724;49.910;12.530;2022-08-19T04:13:04;17.00;1.00
1461;DHT22;724;49.910;12.530;2022-08-19T04:15:32;17.10;1.00
1461;DHT22;724;49.910;12.530;2022-08-19T04:18:04;17.00;1.00
1461;DHT22;724;49.910;12.530;2022-08-19T04:20:33;17.10;1.00
1461;DHT22;724;49.910;12.530;2022-08-19T04:23:04;17.20;1.00
1461;DHT22;724;49.910;12.530;2022-08-19T04:25:35;17.20;99.90
1461;DHT22;724;49.910;12.530;2022-08-19T04:28:03;17.10;99.90
1461;DHT22;724;49.910;12.530;2022-08-19T04:30:30;17.00;99.90
1461;DHT22;724;49.910;12.530;2022-08-19T04:32:57;17.00;99.90
1461;DHT22;724;49.910;12.530;2022-08-19T04:35:24;17.00;1.00
1461;DHT22;724;49.910;12.530;2022-08-19T04:37:51;17.00;1.00
1461;DHT22;724;49.910;12.530;2022-08-19T04:40:17;17.10;1.00
1461;DHT22;724;49.910;12.530;2022-08-19T04:43:01;17.00;1.00
1461;DHT22;724;49.910;12.530;2022-08-19T04:45:30;16.90;1.00
1461;DHT22;724;49.910;12.530;2022-08-19T04:47:56;17.00;1.00
1461;DHT22;724;49.910;12.530;2022-08-19T04:50:23;17.00;1.00
1461;DHT22;724;49.910;12.530;2022-08-19T04:52:51;17.00;1.00
1461;DHT22;724;49.910;12.530;2022-08-19T04:55:18;17.10;1.00
1461;DHT22;724;49.910;12.530;2022-08-19T04:57:45;17.20;1.00
1461;DHT22;724;49.910;12.530;2022-08-19T05:00:12;17.20;1.00
1461;DHT22;724;49.910;12.530;2022-08-19T05:02:40;17.20;1.00
1461;DHT22;724;49.910;12.530;2022-08-19T05:05:08;17.30;1.00
1461;DHT22;724;49.910;12.530;2022-08-19T05:07:35;17.20;1.00
1461;DHT22;724;49.910;12.530;2022-08-19T05:10:03;17.10;1.00
1461;DHT22;724;49.910;12.530;2022-08-19T05:12:31;17.10;1.00
1461;DHT22;724;49.910;12.530;2022-08-19T05:14:58;17.10;1.00
1461;DHT22;724;49.910;12.530;2022-08-19T05:17:26;17.10;1.00
1461;DHT22;724;49.910;12.530;2022-08-19T05:19:55;17.10;1.00
1461;DHT22;724;49.910;12.530;2022-08-19T05:22:40;17.20;1.00
1461;DHT22;724;49.910;12.530;2022-08-19T05:25:08;17.30;1.00
1461;DHT22;724;49.910;12.530;2022-08-19T05:27:39;17.30;1.00
1461;DHT22;724;49.910;12.530;2022-08-19T05:30:07;17.30;1.00
1461;DHT22;724;49.910;12.530;2022-08-19T05:32:34;17.30;1.00
1461;DHT22;724;49.910;12.530;2022-08-19T05:35:03;17.20;1.00
1461;DHT22;724;49.910;12.530;2022-08-19T05:37:30;17.20;1.00
1461;DHT22;724;49.910;12.530;2022-08-19T05:39:56;17.20;1.00
1461;DHT22;724;49.910;12.530;2022-08-19T05:42:23;17.20;1.00
1461;DHT22;724;49.910;12.530;2022-08-19T05:44:51;17.30;1.00
1461;DHT22;724;49.910;12.530;2022-08-19T05:47:18;17.30;1.00
1461;DHT22;724;49.910;12.530;2022-08-19T05:49:45;17.40;1.00
1461;DHT22;724;49.910;12.530;2022-08-19T05:52:15;17.40;1.00
1461;DHT22;724;49.910;12.530;2022-08-19T05:54:42;17.50;99.90
1461;DHT22;724;49.910;12.530;2022-08-19T05:57:09;17.50;99.90
1461;DHT22;724;49.910;12.530;2022-08-19T05:59:36;17.50;99.90
1461;DHT22;724;49.910;12.530;2022-08-19T06:02:05;17.50;99.90
1461;DHT22;724;49.910;12.530;2022-08-19T06:04:33;17.70;1.00
1461;DHT22;724;49.910;12.530;2022-08-19T06:06:59;17.60;1.00
1461;DHT22;724;49.910;12.530;2022-08-19T06:09:29;17.60;1.00
1461;DHT22;724;49.910;12.530;2022-08-19T06:11:58;17.30;1.00
1461;DHT22;724;49.910;12.530;2022-08-19T06:14:29;17.40;99.90
1461;DHT22;724;49.910;12.530;2022-08-19T06:16:56;17.50;99.90
1461;DHT22;724;49.910;12.530;2022-08-19T06:19:25;17.60;1.00
1461;DHT22;724;49.910;12.530;2022-08-19T06:21:55;17.60;1.00
1461;DHT22;724;49.910;12.530;2022-08-19T06:24:25;17.50;99.90
1461;DHT22;724;49.910;12.530;2022-08-19T06:26:55;17.60;40.70
1461;DHT22;724;49.910;12.530;2022-08-19T06:29:24;17.60;1.00
1461;DHT22;724;49.910;12.530;2022-08-19T06:31:53;17.80;1.00
1461;DHT22;724;49.910;12.530;2022-08-19T06:34:21;17.90;1.00
1461;DHT22;724;49.910;12.530;2022-08-19T06:36:50;17.90;99.90
1461;DHT22;724;49.910;12.530;2022-08-19T06:39:19;17.90;1.00
1461;DHT22;724;49.910;12.530;2022-08-19T06:41:50;18.00;58.60
1461;DHT22;724;49.910;12.530;2022-08-19T06:44:19;17.90;1.00
1461;DHT22;724;49.910;12.530;2022-08-19T06:46:47;18.00;1.00
1461;DHT22;724;49.910;12.530;2022-08-19T06:49:14;17.90;1.00
1461;DHT22;724;49.910;12.530;2022-08-19T06:51:41;17.90;1.00
1461;DHT22;724;49.910;12.530;2022-08-19T06:54:09;18.10;99.90
1461;DHT22;724;49.910;12.530;2022-08-19T06:56:36;18.10;1.00
1461;DHT22;724;49.910;12.530;2022-08-19T06:59:05;18.20;99.90
1461;DHT22;724;49.910;12.530;2022-08-19T07:01:36;18.10;99.90
1461;DHT22;724;49.910;12.530;2022-08-19T07:04:05;18.10;99.90
1461;DHT22;724;49.910;12.530;2022-08-19T07:06:32;18.10;99.90
1461;DHT22;724;49.910;12.530;2022-08-19T07:08:58;18.20;99.90
1461;DHT22;724;49.910;12.530;2022-08-19T07:11:26;18.10;99.90
1461;DHT22;724;49.910;12.530;2022-08-19T07:13:52;18.10;1.00
1461;DHT22;724;49.910;12.530;2022-08-19T07:16:21;18.20;99.90
1461;DHT22;724;49.910;12.530;2022-08-19T07:18:50;18.20;1.00
1461;DHT22;724;49.910;12.530;2022-08-19T07:21:18;18.40;1.00
1461;DHT22;724;49.910;12.530;2022-08-19T07:23:46;18.70;1.00
1461;DHT22;724;49.910;12.530;2022-08-19T07:26:15;19.00;1.00
1461;DHT22;724;49.910;12.530;2022-08-19T07:28:43;19.30;1.00
1461;DHT22;724;49.910;12.530;2022-08-19T07:31:11;19.70;99.90
1461;DHT22;724;49.910;12.530;2022-08-19T07:33:38;20.00;1.00
1461;DHT22;724;49.910;12.530;2022-08-19T07:36:09;20.10;1.00
1461;DHT22;724;49.910;12.530;2022-08-19T07:38:38;20.00;1.00
1461;DHT22;724;49.910;12.530;2022-08-19T07:41:07;20.20;1.00
1461;DHT22;724;49.910;12.530;2022-08-19T07:43:33;20.20;1.00
1461;DHT22;724;49.910;12.530;2022-08-19T07:46:00;20.40;1.00
1461;DHT22;724;49.910;12.530;2022-08-19T07:48:27;20.40;99.90
1461;DHT22;724;49.910;12.530;2022-08-19T07:50:59;20.30;1.00
1461;DHT22;724;49.910;12.530;2022-08-19T07:53:30;20.30;99.90
1461;DHT22;724;49.910;12.530;2022-08-19T07:55:58;20.40;99.90
1461;DHT22;724;49.910;12.530;2022-08-19T07:58:29;20.60;99.90
1461;DHT22;724;49.910;12.530;2022-08-19T08:00:56;20.60;99.90
1461;DHT22;724;49.910;12.530;2022-08-19T08:03:23;20.70;99.90
1461;DHT22;724;49.910;12.530;2022-08-19T08:06:11;20.50;99.90
1461;DHT22;724;49.910;12.530;2022-08-19T08:08:58;20.60;99.90
1461;DHT22;724;49.910;12.530;2022-08-19T08:11:49;20.60;99.90
1461;DHT22;724;49.910;12.530;2022-08-19T08:14:19;20.20;99.90
1461;DHT22;724;49.910;12.530;2022-08-19T08:16:48;20.30;99.90
1461;DHT22;724;49.910;12.530;2022-08-19T08:19:17;20.10;99.90
1461;DHT22;724;49.910;12.530;2022-08-19T08:21:44;20.00;99.90
1461;DHT22;724;49.910;12.530;2022-08-19T08:24:12;19.80;99.90
1461;DHT22;724;49.910;12.530;2022-08-19T08:26:39;19.80;99.90
1461;DHT22;724;49.910;12.530;2022-08-19T08:29:08;20.00;99.90
1461;DHT22;724;49.910;12.530;2022-08-19T08:31:39;20.20;99.90
1461;DHT22;724;49.910;12.530;2022-08-19T08:34:06;20.50;99.90
1461;DHT22;724;49.910;12.530;2022-08-19T08:36:36;20.50;99.90
1461;DHT22;724;49.910;12.530;2022-08-19T08:39:06;20.70;99.90
1461;DHT22;724;49.910;12.530;2022-08-19T08:41:38;20.60;99.90
1461;DHT22;724;49.910;12.530;2022-08-19T08:44:12;20.50;99.90
1461;DHT22;724;49.910;12.530;2022-08-19T08:46:44;20.40;99.90
1461;DHT22;724;49.910;12.530;2022-08-19T08:49:29;20.30;99.90
1461;DHT22;724;49.910;12.530;2022-08-19T08:52:03;20.30;99.90
1461;DHT22;724;49.910;12.530;2022-08-19T08:54:33;20.20;99.90
1461;DHT22;724;49.910;12.530;2022-08-19T08:57:05;20.10;99.90
1461;DHT22;724;49.910;12.530;2022-08-19T08:59:35;20.00;99.90
1461;DHT22;724;49.910;12.530;2022-08-19T09:02:04;20.00;99.90
1461;DHT22;724;49.910;12.530;2022-08-19T09:04:31;20.20;99.90
1461;DHT22;724;49.910;12.530;2022-08-19T09:07:10;20.10;99.90
1461;DHT22;724;49.910;12.530;2022-08-19T09:09:43;20.10;99.90
1461;DHT22;724;49.910;12.530;2022-08-19T09:12:16;20.10;99.90
1461;DHT22;724;49.910;12.530;2022-08-19T09:14:49;20.30;99.90
1461;DHT22;724;49.910;12.530;2022-08-19T09:17:17;20.40;99.90
1461;DHT22;724;49.910;12.530;2022-08-19T09:19:54;20.60;99.90
1461;DHT22;724;49.910;12.530;2022-08-19T09:22:22;20.70;32.70
1461;DHT22;724;49.910;12.530;2022-08-19T09:24:50;20.60;1.00
1461;DHT22;724;49.910;12.530;2022-08-19T09:27:20;20.40;1.00
1461;DHT22;724;49.910;12.530;2022-08-19T09:29:49;20.50;1.00
1461;DHT22;724;49.910;12.530;2022-08-19T09:32:16;20.40;1.00
1461;DHT22;724;49.910;12.530;2022-08-19T09:34:43;20.60;1.00
1461;DHT22;724;49.910;12.530;2022-08-19T09:37:37;20.80;1.00
1461;DHT22;724;49.910;12.530;2022-08-19T09:40:06;20.70;1.00
1461;DHT22;724;49.910;12.530;2022-08-19T09:42:35;20.60;1.00
1461;DHT22;724;49.910;12.530;2022-08-19T09:45:04;20.70;1.00
1461;DHT22;724;49.910;12.530;2022-08-19T09:47:31;20.90;1.00
1461;DHT22;724;49.910;12.530;2022-08-19T09:50:01;21.10;1.00
1461;DHT22;724;49.910;12.530;2022-08-19T09:52:28;21.10;1.00
1461;DHT22;724;49.910;12.530;2022-08-19T09:54:55;20.80;1.00
1461;DHT22;724;49.910;12.530;2022-08-19T09:57:21;20.70;1.00
1461;DHT22;724;49.910;12.530;2022-08-19T09:59:50;20.50;1.00
1461;DHT22;724;49.910;12.530;2022-08-19T10:02:16;20.30;1.00
1461;DHT22;724;49.910;12.530;2022-08-19T10:04:44;20.10;27.20
1461;DHT22;724;49.910;12.530;2022-08-19T10:07:29;20.20;76.60
1461;DHT22;724;49.910;12.530;2022-08-19T10:09:56;20.10;63.10
1461;DHT22;724;49.910;12.530;2022-08-19T10:12:23;20.00;87.20
1461;DHT22;724;49.910;12.530;2022-08-19T10:14:51;19.90;99.90
1461;DHT22;724;49.910;12.530;2022-08-19T10:17:20;19.80;99.90
1461;DHT22;724;49.910;12.530;2022-08-19T10:19:46;19.80;99.90
1461;DHT22;724;49.910;12.530;2022-08-19T10:22:13;19.80;99.90
1461;DHT22;724;49.910;12.530;2022-08-19T10:24:40;20.00;99.90
1461;DHT22;724;49.910;12.530;2022-08-19T10:27:07;20.20;92.90
1461;DHT22;724;49.910;12.530;2022-08-19T10:29:35;20.40;39.40
1461;DHT22;724;49.910;12.530;2022-08-19T10:32:06;20.50;1.00
1461;DHT22;724;49.910;12.530;2022-08-19T10:34:35;20.60;1.00
1461;DHT22;724;49.910;12.530;2022-08-19T10:37:03;20.70;1.00
1461;DHT22;724;49.910;12.530;2022-08-19T10:39:35;20.70;1.00
1461;DHT22;724;49.910;12.530;2022-08-19T10:42:05;21.30;1.00
1461;DHT22;724;49.910;12.530;2022-08-19T10:44:32;21.40;1.00
1461;DHT22;724;49.910;12.530;2022-08-19T10:47:01;21.70;1.00
1461;DHT22;724;49.910;12.530;2022-08-19T10:49:29;21.90;1.00
1461;DHT22;724;49.910;12.530;2022-08-19T10:51:56;21.70;1.00
1461;DHT22;724;49.910;12.530;2022-08-19T10:54:40;21.80;1.00
1461;DHT22;724;49.910;12.530;2022-08-19T10:57:24;21.90;1.00
1461;DHT22;724;49.910;12.530;2022-08-19T10:59:54;22.00;1.00
1461;DHT22;724;49.910;12.530;2022-08-19T11:02:22;22.50;1.00
1461;DHT22;724;49.910;12.530;2022-08-19T11:04:50;22.30;1.00
1461;DHT22;724;49.910;12.530;2022-08-19T11:07:17;22.40;1.00
1461;DHT22;724;49.910;12.530;2022-08-19T11:09:44;22.30;1.00
1461;DHT22;724;49.910;12.530;2022-08-19T11:12:12;22.00;1.00
1461;DHT22;724;49.910;12.530;2022-08-19T11:14:40;22.30;1.00
1461;DHT22;724;49.910;12.530;2022-08-19T11:17:07;22.20;1.00
1461;DHT22;724;49.910;12.530;2022-08-19T11:19:34;22.10;1.00
1461;DHT22;724;49.910;12.530;2022-08-19T11:22:03;22.20;1.00
1461;DHT22;724;49.910;12.530;2022-08-19T11:24:31;22.00;1.00
1461;DHT22;724;49.910;12.530;2022-08-19T11:27:03;21.70;1.00
1461;DHT22;724;49.910;12.530;2022-08-19T11:29:31;21.90;1.00
1461;DHT22;724;49.910;12.530;2022-08-19T11:31:59;21.80;1.00
1461;DHT22;724;49.910;12.530;2022-08-19T11:34:27;21.40;1.00
1461;DHT22;724;49.910;12.530;2022-08-19T11:36:55;21.60;1.00
1461;DHT22;724;49.910;12.530;2022-08-19T11:39:28;21.90;1.00
1461;DHT22;724;49.910;12.530;2022-08-19T11:41:57;21.80;1.00
1461;DHT22;724;49.910;12.530;2022-08-19T11:44:24;21.70;1.00
1461;DHT22;724;49.910;12.530;2022-08-19T11:46:51;21.70;1.00
1461;DHT22;724;49.910;12.530;2022-08-19T11:49:19;21.50;1.00
1461;DHT22;724;49.910;12.530;2022-08-19T11:51:47;21.40;1.00
1461;DHT22;724;49.910;12.530;2022-08-19T11:54:16;21.30;1.00
1461;DHT22;724;49.910;12.530;2022-08-19T11:56:45;21.50;1.00
1461;DHT22;724;49.910;12.530;2022-08-19T11:59:14;21.70;1.00
1461;DHT22;724;49.910;12.530;2022-08-19T12:01:41;21.80;1.00
1461;DHT22;724;49.910;12.530;2022-08-19T12:04:09;21.70;1.00
1461;DHT22;724;49.910;12.530;2022-08-19T12:06:39;21.60;1.00
1461;DHT22;724;49.910;12.530;2022-08-19T12:09:07;21.30;1.00
1461;DHT22;724;49.910;12.530;2022-08-19T12:11:35;21.30;1.00
1461;DHT22;724;49.910;12.530;2022-08-19T12:14:04;21.40;1.00
1461;DHT22;724;49.910;12.530;2022-08-19T12:16:32;21.60;1.00
1461;DHT22;724;49.910;12.530;2022-08-19T12:19:00;21.20;1.00
1461;DHT22;724;49.910;12.530;2022-08-19T12:21:31;21.20;1.00
1461;DHT22;724;49.910;12.530;2022-08-19T12:23:59;21.20;1.00
1461;DHT22;724;49.910;12.530;2022-08-19T12:26:27;21.00;1.00
1461;DHT22;724;49.910;12.530;2022-08-19T12:28:55;21.00;1.00
1461;DHT22;724;49.910;12.530;2022-08-19T12:31:25;20.80;1.00
1461;DHT22;724;49.910;12.530;2022-08-19T12:33:53;21.00;1.00
1461;DHT22;724;49.910;12.530;2022-08-19T12:36:20;21.10;1.00
1461;DHT22;724;49.910;12.530;2022-08-19T12:38:48;21.50;1.00
1461;DHT22;724;49.910;12.530;2022-08-19T12:41:16;21.50;1.00
1461;DHT22;724;49.910;12.530;2022-08-19T12:43:44;21.70;1.00
1461;DHT22;724;49.910;12.530;2022-08-19T12:46:11;21.80;1.00
1461;DHT22;724;49.910;12.530;2022-08-19T12:48:40;21.90;1.00
1461;DHT22;724;49.910;12.530;2022-08-19T12:51:13;22.20;1.00
1461;DHT22;724;49.910;12.530;2022-08-19T12:53:41;22.20;1.00
1461;DHT22;724;49.910;12.530;2022-08-19T12:56:09;22.50;1.00
1461;DHT22;724;49.910;12.530;2022-08-19T12:58:38;22.10;1.00
1461;DHT22;724;49.910;12.530;2022-08-19T13:01:08;22.20;1.00
1461;DHT22;724;49.910;12.530;2022-08-19T13:03:35;22.80;1.00
1461;DHT22;724;49.910;12.530;2022-08-19T13:06:04;23.00;1.00
1461;DHT22;724;49.910;12.530;2022-08-19T13:08:31;23.50;1.00
1461;DHT22;724;49.910;12.530;2022-08-19T13:10:57;23.50;1.00
1461;DHT22;724;49.910;12.530;2022-08-19T13:13:32;23.40;1.00
1461;DHT22;724;49.910;12.530;2022-08-19T13:16:00;23.40;1.00
1461;DHT22;724;49.910;12.530;2022-08-19T13:18:28;23.20;1.00
1461;DHT22;724;49.910;12.530;2022-08-19T13:20:55;23.10;1.00
1461;DHT22;724;49.910;12.530;2022-08-19T13:23:23;22.90;1.00
1461;DHT22;724;49.910;12.530;2022-08-19T13:25:56;22.40;1.00
1461;DHT22;724;49.910;12.530;2022-08-19T13:28:23;22.60;1.00
1461;DHT22;724;49.910;12.530;2022-08-19T13:30:50;22.80;1.00
1461;DHT22;724;49.910;12.530;2022-08-19T13:33:34;22.90;1.00
1461;DHT22;724;49.910;12.530;2022-08-19T13:36:01;23.10;1.00
1461;DHT22;724;49.910;12.530;2022-08-19T13:38:31;22.90;1.00
1461;DHT22;724;49.910;12.530;2022-08-19T13:41:04;22.60;1.00
1461;DHT22;724;49.910;12.530;2022-08-19T13:43:31;22.50;1.00
1461;DHT22;724;49.910;12.530;2022-08-19T13:45:58;22.50;1.00
1461;DHT22;724;49.910;12.530;2022-08-19T13:48:27;22.50;1.00
1461;DHT22;724;49.910;12.530;2022-08-19T13:50:54;22.20;1.00
1461;DHT22;724;49.910;12.530;2022-08-19T13:53:21;21.90;1.00
1461;DHT22;724;49.910;12.530;2022-08-19T13:55:50;22.00;1.00
1461;DHT22;724;49.910;12.530;2022-08-19T13:58:18;22.00;1.00
1461;DHT22;724;49.910;12.530;2022-08-19T14:00:46;21.80;1.00
1461;DHT22;724;49.910;12.530;2022-08-19T14:03:13;21.70;1.00
1461;DHT22;724;49.910;12.530;2022-08-19T14:05:40;21.70;1.00
1461;DHT22;724;49.910;12.530;2022-08-19T14:08:07;21.70;1.00
1461;DHT22;724;49.910;12.530;2022-08-19T14:10:34;22.00;1.00
1461;DHT22;724;49.910;12.530;2022-08-19T14:13:03;21.80;1.00
1461;DHT22;724;49.910;12.530;2022-08-19T14:15:30;22.20;1.00
1461;DHT22;724;49.910;12.530;2022-08-19T14:17:57;22.10;1.00
1461;DHT22;724;49.910;12.530;2022-08-19T14:20:25;22.00;1.00
1461;DHT22;724;49.910;12.530;2022-08-19T14:22:53;21.60;1.00
1461;DHT22;724;49.910;12.530;2022-08-19T14:25:24;21.40;1.00
1461;DHT22;724;49.910;12.530;2022-08-19T14:27:51;21.00;1.00
1461;DHT22;724;49.910;12.530;2022-08-19T14:30:21;20.70;1.00
1461;DHT22;724;49.910;12.530;2022-08-19T14:32:48;20.70;1.00
1461;DHT22;724;49.910;12.530;2022-08-19T14:35:15;20.60;1.00
1461;DHT22;724;49.910;12.530;2022-08-19T14:37:44;20.40;1.00
1461;DHT22;724;49.910;12.530;2022-08-19T14:40:12;20.70;1.00
1461;DHT22;724;49.910;12.530;2022-08-19T14:42:39;20.80;1.00
1461;DHT22;724;49.910;12.530;2022-08-19T14:45:07;20.80;1.00
1461;DHT22;724;49.910;12.530;2022-08-19T14:47:35;20.50;36.60
1461;DHT22;724;49.910;12.530;2022-08-19T14:50:04;20.60;80.80
1461;DHT22;724;49.910;12.530;2022-08-19T14:52:31;20.50;99.90
1461;DHT22;724;49.910;12.530;2022-08-19T14:54:58;20.40;99.90
1461;DHT22;724;49.910;12.530;2022-08-19T14:57:25;20.40;99.90
1461;DHT22;724;49.910;12.530;2022-08-19T14:59:52;20.20;99.90
1461;DHT22;724;49.910;12.530;2022-08-19T15:02:19;20.10;99.90
1461;DHT22;724;49.910;12.530;2022-08-19T15:04:47;20.10;99.90
1461;DHT22;724;49.910;12.530;2022-08-19T15:07:14;20.00;99.90
1461;DHT22;724;49.910;12.530;2022-08-19T15:09:40;20.00;1.00
1461;DHT22;724;49.910;12.530;2022-08-19T15:12:07;19.80;1.00
1461;DHT22;724;49.910;12.530;2022-08-19T15:14:36;19.70;1.00
1461;DHT22;724;49.910;12.530;2022-08-19T15:17:04;19.50;1.00
1461;DHT22;724;49.910;12.530;2022-08-19T15:19:32;19.60;1.00
1461;DHT22;724;49.910;12.530;2022-08-19T15:22:02;19.40;1.00
1461;DHT22;724;49.910;12.530;2022-08-19T15:24:29;19.30;1.00
1461;DHT22;724;49.910;12.530;2022-08-19T15:26:56;19.20;1.00
1461;DHT22;724;49.910;12.530;2022-08-19T15:29:23;19.10;99.90
1461;DHT22;724;49.910;12.530;2022-08-19T15:31:51;19.10;46.80
1461;DHT22;724;49.910;12.530;2022-08-19T15:34:20;19.00;1.00
1461;DHT22;724;49.910;12.530;2022-08-19T15:36:47;18.90;58.10
1461;DHT22;724;49.910;12.530;2022-08-19T15:39:15;18.90;43.80
1461;DHT22;724;49.910;12.530;2022-08-19T15:41:44;18.90;99.90
1461;DHT22;724;49.910;12.530;2022-08-19T15:44:14;19.10;99.90
1461;DHT22;724;49.910;12.530;2022-08-19T15:46:44;19.00;93.30
1461;DHT22;724;49.910;12.530;2022-08-19T15:49:12;19.00;99.90
1461;DHT22;724;49.910;12.530;2022-08-19T15:51:41;19.10;99.90
1461;DHT22;724;49.910;12.530;2022-08-19T15:54:11;19.00;99.90
1461;DHT22;724;49.910;12.530;2022-08-19T15:56:40;19.00;99.90
1461;DHT22;724;49.910;12.530;2022-08-19T15:59:24;18.90;1.00
1461;DHT22;724;49.910;12.530;2022-08-19T16:02:09;18.90;99.90
1461;DHT22;724;49.910;12.530;2022-08-19T16:04:53;18.90;1.00
1461;DHT22;724;49.910;12.530;2022-08-19T16:07:38;18.80;1.00
1461;DHT22;724;49.910;12.530;2022-08-19T16:10:05;18.90;1.00
1461;DHT22;724;49.910;12.530;2022-08-19T16:12:34;18.70;1.00
1461;DHT22;724;49.910;12.530;2022-08-19T16:15:00;18.70;1.00
1461;DHT22;724;49.910;12.530;2022-08-19T16:17:27;18.70;1.00
1461;DHT22;724;49.910;12.530;2022-08-19T16:19:54;18.70;95.90
1461;DHT22;724;49.910;12.530;2022-08-19T16:22:27;18.60;1.00